Time;durP1;ratioP1;P1;durP2;ratioP2;P2;SDS_P1;SDS_P2;PMS_P1;PMS_P2;Temp;Humidity;BMP_temperature;BMP_pressure;BME280_temperature;BME280_humidity;BME280_pressure;Samples;Min_cycle;Max_cycle;Signal;HPM_P1;HPM_P2
2022/04/26 03:36:49;;;;;;;;;43.00;37.75;;;;;13.15;54.16;100792.03;5064782;28;45537;-63
2022/04/26 03:39:15;;;;;;;;;48.25;37.00;;;;;13.11;53.82;100787.81;5054500;28;45966;-66
2022/04/26 03:41:40;;;;;;;;;42.00;36.00;;;;;13.10;54.18;100791.34;5057863;28;45542;-63
2022/04/26 03:44:06;;;;;;;;;44.50;38.25;;;;;13.07;54.08;100785.34;5058315;28;45455;-64
2022/04/26 03:46:31;;;;;;;;;41.50;36.00;;;;;13.01;54.98;100792.63;5058570;28;45593;-65
2022/04/26 03:48:57;;;;;;;;;41.25;36.50;;;;;13.01;54.75;100786.47;5057981;28;45365;-65
2022/04/26 03:51:22;;;;;;;;;41.25;33.50;;;;;13.06;54.12;100795.06;5058137;27;45422;-62
2022/04/26 03:53:47;;;;;;;;;40.50;34.00;;;;;13.03;54.68;100797.84;5058174;28;47310;-63
2022/04/26 03:56:13;;;;;;;;;44.25;39.00;;;;;13.05;53.81;100794.19;5058424;28;45434;-62
2022/04/26 03:58:39;;;;;;;;;45.00;35.75;;;;;13.07;54.25;100796.78;5057967;28;45478;-63
2022/04/26 04:01:04;;;;;;;;;46.50;37.50;;;;;13.05;54.16;100785.41;5057873;28;45438;-62
2022/04/26 04:03:30;;;;;;;;;45.75;39.75;;;;;13.03;54.22;100793.41;5057717;28;45482;-63
2022/04/26 04:05:56;;;;;;;;;41.25;37.00;;;;;13.04;54.67;100799.53;5057271;28;45425;-62
2022/04/26 04:08:21;;;;;;;;;46.25;39.50;;;;;13.04;55.07;100795.13;5056211;28;45547;-64
2022/04/26 04:10:47;;;;;;;;;42.50;38.75;;;;;13.03;54.42;100796.06;5057891;28;45391;-61
2022/04/26 04:13:13;;;;;;;;;46.75;38.50;;;;;13.02;54.15;100791.69;5074556;28;45532;-65
2022/04/26 04:15:38;;;;;;;;;48.75;41.75;;;;;13.00;54.79;100795.31;5078056;28;45536;-65
2022/04/26 04:19:17;;;;;;;;;47.25;40.50;;;;;12.96;54.73;100796.38;5067430;27;45434;-64
2022/04/26 04:20:49;;;;;;;;;51.50;39.75;;;;;12.90;54.70;100804.56;5074329;28;45421;-62
2022/04/26 04:23:14;;;;;;;;;46.00;37.75;;;;;12.91;54.93;100808.91;5077451;28;51571;-64
2022/04/26 04:25:39;;;;;;;;;45.00;38.50;;;;;12.91;55.74;100808.91;5077696;27;45374;-62
2022/04/26 04:28:05;;;;;;;;;52.25;43.50;;;;;12.88;55.14;100809.88;5077515;27;45426;-62
2022/04/26 04:30:30;;;;;;;;;50.75;43.75;;;;;12.84;55.24;100816.19;5077693;27;45487;-65
2022/04/26 04:32:55;;;;;;;;;51.00;43.00;;;;;12.81;55.66;100817.22;5077549;28;50853;-65
2022/04/26 04:35:21;;;;;;;;;53.25;42.00;;;;;12.76;55.32;100818.28;5092967;27;45498;-64
2022/04/26 04:37:47;;;;;;;;;54.25;42.75;;;;;12.81;55.00;100826.88;5077499;27;45393;-62
2022/04/26 04:40:13;;;;;;;;;53.00;44.25;;;;;12.70;54.71;100818.56;5077666;28;45448;-65
2022/04/26 04:42:38;;;;;;;;;42.00;37.00;;;;;12.82;55.36;100834.75;5077964;27;45414;-65
2022/04/26 04:45:03;;;;;;;;;49.00;39.50;;;;;12.80;55.11;100838.38;5078695;27;45579;-64
2022/04/26 04:47:29;;;;;;;;;48.50;40.75;;;;;12.72;56.13;100833.41;5077515;27;45466;-63
2022/04/26 04:49:55;;;;;;;;;50.00;41.50;;;;;12.65;55.94;100844.28;5075459;27;45551;-64
2022/04/26 04:52:20;;;;;;;;;51.50;42.00;;;;;12.63;55.55;100833.78;5077340;27;45493;-65
2022/04/26 04:54:46;;;;;;;;;49.00;40.50;;;;;12.74;55.83;100833.38;5077066;27;45593;-63
2022/04/26 04:57:12;;;;;;;;;46.00;40.50;;;;;12.83;55.16;100843.53;5077423;27;46185;-64
2022/04/26 04:59:37;;;;;;;;;51.25;42.50;;;;;12.83;55.47;100844.38;5077410;27;45444;-62
2022/04/26 05:02:02;;;;;;;;;50.75;43.00;;;;;12.82;55.41;100852.38;5068084;27;45490;-65
2022/04/26 05:04:28;;;;;;;;;48.50;40.75;;;;;12.77;55.33;100847.28;5057006;28;45383;-64
2022/04/26 05:06:53;;;;;;;;;54.25;43.50;;;;;12.78;56.17;100858.69;5056797;28;46868;-65
2022/04/26 05:09:19;;;;;;;;;48.50;41.50;;;;;12.73;55.41;100845.66;5056697;28;46632;-63
2022/04/26 05:11:44;;;;;;;;;48.25;40.25;;;;;12.76;55.51;100860.53;5055521;28;45461;-64
2022/04/26 05:14:09;;;;;;;;;51.25;43.00;;;;;12.73;56.14;100863.28;5056195;28;49782;-65
2022/04/26 05:16:35;;;;;;;;;53.00;43.25;;;;;12.73;56.46;100872.06;5058009;28;46938;-63
2022/04/26 05:19:00;;;;;;;;;48.00;41.00;;;;;12.73;55.94;100866.78;5056980;28;45489;-64
2022/04/26 05:21:25;;;;;;;;;55.25;46.50;;;;;12.72;56.58;100859.81;5056767;28;46704;-65
2022/04/26 05:26:34;;;;;;;;;55.75;45.75;;;;;12.95;55.66;100877.38;5066714;28;45548;-63
2022/04/26 05:29:01;;;;;;;;;50.75;42.00;;;;;12.92;55.80;100876.59;5076964;27;45454;-64
2022/04/26 05:31:26;;;;;;;;;55.25;43.75;;;;;12.99;55.11;100884.22;5077043;27;45393;-65
2022/04/26 05:33:52;;;;;;;;;57.00;44.25;;;;;13.01;55.89;100887.66;5075418;28;45569;-64
2022/04/26 05:36:17;;;;;;;;;57.75;47.00;;;;;13.06;55.07;100895.41;5076885;27;46302;-67
2022/04/26 05:38:42;;;;;;;;;55.00;47.75;;;;;13.08;55.05;100890.91;5074820;27;45453;-64
2022/04/26 05:41:08;;;;;;;;;53.00;45.00;;;;;13.03;55.31;100903.47;5073913;28;45725;-62
2022/04/26 05:43:33;;;;;;;;;58.75;46.75;;;;;13.05;55.94;100894.53;5060555;28;45561;-64
2022/04/26 05:45:59;;;;;;;;;60.50;48.75;;;;;13.05;55.85;100898.94;5076485;27;46749;-63
2022/04/26 05:48:24;;;;;;;;;55.50;46.75;;;;;13.08;55.89;100903.25;5076395;27;45456;-64
2022/04/26 05:50:50;;;;;;;;;57.75;48.50;;;;;13.14;55.69;100906.50;5076690;28;45435;-64
2022/04/26 05:53:15;;;;;;;;;53.75;44.75;;;;;13.11;55.73;100909.28;5055955;27;45473;-65
2022/04/26 05:55:40;;;;;;;;;58.75;48.00;;;;;13.04;55.95;100902.53;5061629;27;45904;-62
2022/04/26 05:58:06;;;;;;;;;60.50;50.75;;;;;13.05;55.77;100923.56;5096795;27;45433;-62
2022/04/26 06:00:31;;;;;;;;;56.75;47.00;;;;;13.03;56.00;100919.31;5089200;27;45378;-62
2022/04/26 06:02:57;;;;;;;;;59.75;48.75;;;;;12.92;55.81;100916.19;5075258;27;45559;-61
2022/04/26 06:05:23;;;;;;;;;62.50;50.00;;;;;12.92;56.09;100922.38;5076296;27;45489;-64
2022/04/26 06:07:49;;;;;;;;;61.00;50.00;;;;;12.89;56.50;100921.63;5076264;27;45616;-64
2022/04/26 06:10:14;;;;;;;;;62.00;49.75;;;;;12.86;55.96;100921.75;5076250;27;45447;-64
2022/04/26 06:12:42;;;;;;;;;62.00;50.50;;;;;12.79;56.05;100926.41;5070337;27;45528;-61
2022/04/26 06:15:08;;;;;;;;;59.00;48.25;;;;;12.80;55.92;100920.19;5055807;28;45415;-65
2022/04/26 06:17:33;;;;;;;;;59.50;48.75;;;;;12.83;56.66;100920.06;5075352;28;45422;-62
2022/04/26 06:19:59;;;;;;;;;61.50;47.50;;;;;12.73;56.76;100909.00;5075928;27;45443;-63
2022/04/26 06:22:24;;;;;;;;;60.75;47.50;;;;;12.71;56.25;100902.09;5076049;28;45584;-64
2022/04/26 06:24:51;;;;;;;;;60.00;49.25;;;;;12.83;55.91;100912.16;5060783;28;45501;-62
2022/04/26 06:27:17;;;;;;;;;59.00;48.75;;;;;12.74;56.31;100909.91;5055683;28;45497;-64
2022/04/26 06:29:43;;;;;;;;;62.25;51.00;;;;;12.81;56.63;100919.28;5070737;28;45443;-64
2022/04/26 06:32:08;;;;;;;;;59.75;47.25;;;;;12.90;55.75;100921.56;5074853;27;45456;-64
2022/04/26 06:34:33;;;;;;;;;60.00;49.00;;;;;12.94;56.03;100924.94;5075159;27;46015;-63
2022/04/26 06:36:59;;;;;;;;;64.50;51.75;;;;;12.98;55.89;100930.03;5075209;27;45417;-64
2022/04/26 06:39:24;;;;;;;;;58.00;47.00;;;;;12.89;56.36;100927.75;5075473;27;45392;-65
2022/04/26 06:41:49;;;;;;;;;57.00;47.00;;;;;12.97;56.20;100932.72;5074918;27;50296;-64
2022/04/26 06:44:15;;;;;;;;;59.50;48.00;;;;;13.08;55.51;100934.94;5075002;27;45412;-63
2022/04/26 06:46:40;;;;;;;;;62.50;50.75;;;;;13.01;55.34;100935.19;5075167;28;45524;-64
2022/04/26 06:49:06;;;;;;;;;62.75;49.00;;;;;12.98;55.76;100940.59;5075380;27;45476;-65
2022/04/26 06:51:38;;;;;;;;;61.00;48.75;;;;;13.04;56.34;100937.69;5073186;28;45631;-65
2022/04/26 06:54:03;;;;;;;;;62.75;50.25;;;;;13.09;55.73;100942.81;5075027;28;45433;-64
2022/04/26 06:56:29;;;;;;;;;60.75;49.75;;;;;13.13;55.82;100936.47;5074871;27;45414;-62
2022/04/26 06:58:55;;;;;;;;;59.25;50.50;;;;;13.19;55.34;100949.44;5075263;28;45403;-61
2022/04/26 07:01:20;;;;;;;;;61.75;47.00;;;;;13.20;55.96;100942.38;5072924;28;45553;-64
2022/04/26 07:03:45;;;;;;;;;62.50;50.50;;;;;13.24;55.47;100943.94;5073557;28;47185;-63
2022/04/26 07:06:11;;;;;;;;;59.75;50.25;;;;;13.33;55.17;100940.13;5075017;27;45358;-65
2022/04/26 07:08:36;;;;;;;;;58.25;49.00;;;;;13.35;55.47;100948.81;5075294;27;45438;-63
2022/04/26 07:11:01;;;;;;;;;65.75;51.00;;;;;13.31;55.25;100952.53;5074749;27;48299;-64
2022/04/26 07:13:27;;;;;;;;;59.50;48.00;;;;;13.37;55.52;100953.13;5074935;27;46032;-64
2022/04/26 07:15:52;;;;;;;;;58.75;49.75;;;;;13.42;54.87;100952.94;5078317;27;45398;-62
2022/04/26 07:21:01;;;;;;;;;61.00;48.75;;;;;13.59;54.93;100960.16;5078638;28;45372;-63
2022/04/26 07:23:27;;;;;;;;;61.00;50.25;;;;;13.58;54.75;100959.31;5078335;27;45454;-64
2022/04/26 07:25:52;;;;;;;;;59.50;48.00;;;;;13.62;54.38;100952.09;5077842;27;49043;-63
2022/04/26 07:28:19;;;;;;;;;62.25;49.25;;;;;13.58;53.81;100950.53;5078381;27;45567;-65
2022/04/26 07:30:45;;;;;;;;;60.00;49.25;;;;;13.55;54.07;100961.22;5077238;28;45563;-63
2022/04/26 07:35:54;;;;;;;;;59.50;49.50;;;;;13.43;54.20;100962.56;5078301;28;45649;-63
2022/04/26 07:38:20;;;;;;;;;58.00;47.50;;;;;13.45;54.37;100966.03;5077027;28;45438;-63
2022/04/26 07:40:46;;;;;;;;;64.25;50.75;;;;;13.56;53.82;100973.50;5078305;28;45603;-65
2022/04/26 07:43:12;;;;;;;;;61.75;49.25;;;;;13.50;53.53;100969.34;5077882;27;45902;-62
2022/04/26 07:45:39;;;;;;;;;58.50;48.50;;;;;13.58;53.75;100976.94;5077871;27;45476;-64
2022/04/26 07:48:05;;;;;;;;;58.00;48.25;;;;;13.55;53.25;100971.78;5076696;28;45416;-62
2022/04/26 07:50:32;;;;;;;;;65.25;51.00;;;;;13.61;53.35;100984.75;5078162;27;45650;-63
2022/04/26 07:52:59;;;;;;;;;66.75;51.25;;;;;13.65;53.50;100979.28;5077841;27;45464;-63
2022/04/26 07:55:24;;;;;;;;;56.25;46.75;;;;;13.72;53.41;100984.28;5077802;27;45547;-63
2022/04/26 07:57:50;;;;;;;;;59.25;49.00;;;;;13.73;53.37;100993.94;5078194;28;45372;-64
2022/04/26 08:00:16;;;;;;;;;56.50;48.00;;;;;13.72;53.21;100995.72;5077811;27;45469;-64
2022/04/26 08:02:41;;;;;;;;;62.50;48.25;;;;;13.69;53.33;101002.00;5077611;28;46606;-63
2022/04/26 08:05:07;;;;;;;;;61.00;48.25;;;;;13.74;53.23;100995.66;5077522;27;45417;-63
2022/04/26 08:07:34;;;;;;;;;60.50;49.25;;;;;13.80;53.19;101001.53;5077856;27;45447;-63
2022/04/26 08:09:59;;;;;;;;;58.25;48.50;;;;;13.85;52.83;101004.84;5077813;27;45480;-64
2022/04/26 08:12:25;;;;;;;;;57.00;46.25;;;;;13.87;53.19;101008.31;5077579;27;46021;-64
2022/04/26 08:14:50;;;;;;;;;65.00;49.00;;;;;13.86;52.92;101011.00;5077678;27;45409;-64
2022/04/26 08:17:16;;;;;;;;;60.25;48.75;;;;;13.81;53.01;101016.50;5093511;27;45409;-63
2022/04/26 08:19:42;;;;;;;;;59.50;48.25;;;;;13.79;53.01;101015.69;5077595;28;45339;-66
2022/04/26 08:22:08;;;;;;;;;61.00;48.50;;;;;13.85;53.15;101018.06;5077773;28;45390;-64
2022/04/26 08:27:25;;;;;;;;;61.75;49.50;;;;;13.80;52.41;101008.63;5076956;28;45375;-64
2022/04/26 08:29:51;;;;;;;;;59.00;46.50;;;;;13.82;52.75;101022.66;5077422;27;45631;-67
2022/04/26 08:32:16;;;;;;;;;56.00;47.25;;;;;13.89;52.30;101024.97;5077102;27;46283;-62
2022/04/26 08:34:42;;;;;;;;;58.25;46.50;;;;;13.88;52.03;101017.94;5077102;27;45405;-63
2022/04/26 08:37:08;;;;;;;;;57.50;46.75;;;;;13.90;51.97;101025.81;5077343;28;45419;-65
2022/04/26 08:39:34;;;;;;;;;61.50;48.75;;;;;13.87;51.80;101034.75;5077321;28;45474;-64
2022/04/26 08:42:01;;;;;;;;;53.75;45.25;;;;;13.89;51.79;101029.41;5076945;27;45546;-63
2022/04/26 08:44:29;;;;;;;;;59.00;47.25;;;;;13.89;51.65;101030.25;5077191;27;45506;-65
2022/04/26 08:52:26;;;;;;;;;55.25;43.75;;;;;14.02;51.02;101035.00;5076909;28;45677;-64
2022/04/26 08:54:51;;;;;;;;;58.75;46.25;;;;;14.10;50.92;101044.34;5076807;27;45415;-63
2022/04/26 08:57:16;;;;;;;;;56.00;47.00;;;;;14.00;51.25;101032.44;5077278;27;45707;-64
2022/04/26 08:59:52;;;;;;;;;54.00;45.75;;;;;14.10;51.42;101044.34;5076737;27;45595;-66
2022/04/26 09:02:19;;;;;;;;;55.50;46.00;;;;;14.20;51.02;101059.81;5076591;27;46140;-64
2022/04/26 09:04:46;;;;;;;;;53.50;46.00;;;;;14.22;50.74;101053.53;5076450;27;45393;-65
2022/04/26 09:07:26;;;;;;;;;58.00;47.00;;;;;14.25;50.79;101057.84;5075201;28;45395;-66
2022/04/26 09:10:12;;;;;;;;;52.25;42.25;;;;;14.21;50.16;101059.78;5076671;27;45374;-64
2022/04/26 09:13:07;;;;;;;;;52.00;43.00;;;;;14.11;50.95;101067.22;5076512;27;45442;-63
2022/04/26 09:15:42;;;;;;;;;59.00;48.25;;;;;14.08;50.64;101071.81;5075231;28;45391;-66
2022/04/26 09:18:17;;;;;;;;;59.25;45.75;;;;;13.97;50.85;101080.19;5076614;27;45328;-65
2022/04/26 09:20:44;;;;;;;;;61.50;48.50;;;;;13.94;51.59;101075.00;5076498;27;45410;-66
2022/04/26 09:23:28;;;;;;;;;60.00;48.00;;;;;14.04;51.01;101086.91;5076357;27;46203;-64
2022/04/26 09:26:09;;;;;;;;;57.75;45.00;;;;;14.08;51.24;101085.88;5076283;27;45516;-66
2022/04/26 09:28:40;;;;;;;;;55.50;46.25;;;;;14.19;50.58;101080.13;5076509;27;45417;-64
2022/04/26 09:31:24;;;;;;;;;55.25;45.50;;;;;14.24;50.03;101080.78;5076348;27;45453;-63
2022/04/26 09:33:52;;;;;;;;;56.00;46.50;;;;;14.20;50.55;101084.50;5076403;28;46440;-64
2022/04/26 09:36:20;;;;;;;;;50.25;42.00;;;;;14.15;50.38;101079.38;5076187;28;45544;-63
2022/04/26 09:38:55;;;;;;;;;55.75;45.75;;;;;14.29;50.35;101089.41;5075115;27;45418;-63
2022/04/26 09:41:21;;;;;;;;;58.50;47.75;;;;;14.38;49.99;101092.56;5076240;27;45637;-63
2022/04/26 09:44:01;;;;;;;;;56.25;47.25;;;;;14.48;50.54;101091.22;5075929;27;45508;-66
2022/04/26 09:46:47;;;;;;;;;50.75;42.50;;;;;14.48;50.17;101092.09;5076046;27;45483;-66
2022/04/26 09:49:18;;;;;;;;;59.75;49.50;;;;;14.44;50.01;101093.16;5076222;28;45412;-62
2022/04/26 09:51:44;;;;;;;;;59.75;47.50;;;;;14.38;50.25;101095.22;5076203;27;45432;-64
2022/04/26 09:54:09;;;;;;;;;54.50;46.00;;;;;14.36;50.31;101088.19;5076151;27;46399;-64
2022/04/26 09:56:35;;;;;;;;;60.00;48.00;;;;;14.42;50.38;101099.44;5074567;28;45445;-65
2022/04/26 09:59:02;;;;;;;;;60.25;48.25;;;;;14.47;49.72;101097.47;5076379;27;45730;-65
2022/04/26 10:01:34;;;;;;;;;58.75;48.00;;;;;14.51;50.62;101102.56;5075801;27;45381;-64
2022/04/26 10:04:04;;;;;;;;;52.00;43.50;;;;;14.55;49.83;101106.81;5074351;28;45409;-64
2022/04/26 10:06:34;;;;;;;;;59.75;47.50;;;;;14.54;49.23;101101.59;5075675;28;45489;-67
2022/04/26 10:09:02;;;;;;;;;60.75;49.00;;;;;14.57;49.61;101107.59;5075970;27;45528;-64
2022/04/26 10:11:28;;;;;;;;;58.75;46.00;;;;;14.57;49.05;101112.91;5075690;27;45437;-64
2022/04/26 10:13:55;;;;;;;;;58.25;46.75;;;;;14.56;49.65;101105.00;5075475;27;46470;-65
2022/04/26 10:16:23;;;;;;;;;56.00;46.25;;;;;14.58;49.08;101093.44;5075585;27;45443;-64
2022/04/26 10:18:50;;;;;;;;;58.50;46.75;;;;;14.66;49.65;101116.06;5075466;27;45394;-63
2022/04/26 10:21:21;;;;;;;;;59.75;48.75;;;;;14.71;49.60;101108.78;5074106;28;45624;-63
2022/04/26 10:24:01;;;;;;;;;56.75;46.00;;;;;14.74;49.45;101108.66;5075341;27;46430;-65
2022/04/26 10:26:27;;;;;;;;;58.00;45.75;;;;;14.79;49.38;101120.75;5075449;27;45457;-63
2022/04/26 10:29:00;;;;;;;;;61.25;49.25;;;;;14.68;49.37;101124.81;5075290;28;45556;-64
2022/04/26 10:31:42;;;;;;;;;61.25;48.25;;;;;14.69;48.93;101123.88;5075358;27;45469;-63
2022/04/26 10:34:23;;;;;;;;;96.50;89.00;;;;;14.61;49.92;101113.63;5075208;27;45385;-64
2022/04/26 10:36:54;;;;;;;;;56.75;46.25;;;;;14.74;50.07;101125.38;5073928;28;45722;-65
2022/04/26 10:39:21;;;;;;;;;57.50;47.00;;;;;14.82;48.61;101127.69;5075026;27;45500;-65
2022/04/26 10:41:47;;;;;;;;;55.50;46.75;;;;;14.80;49.29;101122.50;5075236;27;45419;-64
2022/04/26 10:44:12;;;;;;;;;56.50;45.50;;;;;14.91;48.54;101131.72;5074857;27;46142;-64
2022/04/26 10:46:38;;;;;;;;;55.00;42.75;;;;;14.96;48.64;101122.66;5074929;28;45390;-64
2022/04/26 10:49:26;;;;;;;;;52.25;43.50;;;;;14.98;48.57;101128.72;5074752;27;45608;-63
2022/04/26 10:51:53;;;;;;;;;53.75;44.50;;;;;14.96;48.12;101125.31;5075064;27;45405;-65
2022/04/26 10:54:46;;;;;;;;;43.25;38.00;;;;;15.00;47.21;101129.53;5074787;27;45396;-64
2022/04/26 10:57:15;;;;;;;;;48.00;40.75;;;;;14.99;46.83;101122.53;5075166;28;45424;-65
2022/04/26 10:59:45;;;;;;;;;53.50;44.00;;;;;15.05;47.55;101120.53;5074849;27;45446;-64
2022/04/26 11:02:19;;;;;;;;;53.25;44.00;;;;;15.11;47.63;101113.16;5074432;27;45357;-64
2022/04/26 11:04:45;;;;;;;;;56.25;44.25;;;;;15.22;46.60;101124.09;5074500;27;46175;-66
2022/04/26 11:07:11;;;;;;;;;54.25;45.00;;;;;15.13;47.41;101116.59;5074740;28;45507;-65
2022/04/26 11:09:43;;;;;;;;;57.75;46.25;;;;;15.12;46.62;101129.91;5074866;27;45498;-64
2022/04/26 11:12:08;;;;;;;;;55.50;46.50;;;;;15.04;46.93;101135.53;5074795;27;45438;-64
2022/04/26 11:14:40;;;;;;;;;55.75;44.50;;;;;15.00;47.45;101126.03;5074642;27;45932;-63
2022/04/26 11:17:06;;;;;;;;;53.50;45.25;;;;;15.08;47.64;101113.28;5075112;27;45506;-63
2022/04/26 11:19:36;;;;;;;;;55.25;44.50;;;;;15.20;47.34;101102.09;5071023;27;45440;-62
2022/04/26 11:22:05;;;;;;;;;48.75;41.50;;;;;15.37;47.37;101111.09;5074322;28;45476;-60
2022/04/26 11:30:04;;;;;;;;;55.50;46.00;;;;;15.60;46.18;101115.28;5072540;28;45430;-59
2022/04/26 11:32:34;;;;;;;;;51.75;41.50;;;;;15.66;46.65;101114.97;5060695;27;45527;-59
2022/04/26 11:35:00;;;;;;;;;66.50;51.25;;;;;15.66;46.79;101115.84;5094511;27;46282;-58
2022/04/26 11:37:26;;;;;;;;;59.25;46.25;;;;;15.66;46.51;101123.81;5083672;27;45977;-59
2022/04/26 11:39:52;;;;;;;;;61.50;48.50;;;;;15.66;45.80;101122.94;5071595;28;45441;-59
2022/04/26 11:42:19;;;;;;;;;54.75;44.50;;;;;15.64;45.32;101120.38;5052838;28;45556;-59
2022/04/26 11:45:04;;;;;;;;;53.75;42.75;;;;;15.56;45.71;101121.66;5053351;28;46427;-64
2022/04/26 11:47:57;;;;;;;;;50.25;41.50;;;;;15.52;45.75;101109.47;5054225;28;45444;-65
2022/04/26 11:50:25;;;;;;;;;50.75;42.00;;;;;15.67;46.45;101130.81;5052087;28;45452;-63
2022/04/26 11:52:53;;;;;;;;;49.25;40.75;;;;;15.72;45.42;101120.03;5054656;28;45489;-64
2022/04/26 11:55:28;;;;;;;;;48.50;41.25;;;;;15.69;46.02;101122.84;5055403;28;45612;-63
2022/04/26 11:58:06;;;;;;;;;47.00;38.00;;;;;15.73;46.14;101123.53;5074821;27;45374;-63
2022/04/26 12:00:33;;;;;;;;;50.75;41.25;;;;;15.82;45.77;101120.44;5067908;27;45527;-65
2022/04/26 12:02:59;;;;;;;;;51.25;42.25;;;;;15.83;45.94;101122.16;5078556;27;45498;-64
2022/04/26 12:05:25;;;;;;;;;23.00;19.50;;;;;15.88;45.50;101123.66;5083665;27;45514;-64
2022/04/26 12:07:51;;;;;;;;;50.75;43.25;;;;;15.79;46.08;101108.16;5076306;27;45418;-64
2022/04/26 12:10:27;;;;;;;;;48.75;39.75;;;;;15.86;45.04;101120.22;5077463;28;45411;-65
2022/04/26 12:12:57;;;;;;;;;45.50;38.25;;;;;15.83;45.26;101116.84;5077786;28;45426;-63
2022/04/26 12:15:27;;;;;;;;;42.50;36.25;;;;;15.90;45.79;101126.22;5077639;28;46055;-65
2022/04/26 12:18:03;;;;;;;;;44.00;38.00;;;;;15.95;46.48;101121.53;5077640;27;45560;-64
2022/04/26 12:20:28;;;;;;;;;51.00;41.75;;;;;15.92;45.66;101128.81;5077621;27;45370;-65
2022/04/26 12:22:54;;;;;;;;;54.25;44.25;;;;;15.84;45.56;101121.22;5076408;27;45549;-64
2022/04/26 12:25:19;;;;;;;;;53.75;43.75;;;;;15.82;45.78;101123.06;5077315;27;46013;-66
2022/04/26 12:27:45;;;;;;;;;49.25;41.25;;;;;15.91;45.80;101120.00;5077572;27;45410;-64
2022/04/26 12:30:10;;;;;;;;;45.67;37.67;;;;;15.99;46.63;101114.31;5077570;27;45429;-66
2022/04/26 12:32:40;;;;;;;;;47.00;40.00;;;;;16.10;45.30;101118.13;5077497;27;45416;-65
2022/04/26 12:35:09;;;;;;;;;44.25;37.75;;;;;16.22;45.48;101118.44;5077365;27;45550;-63
2022/04/26 12:37:34;;;;;;;;;45.25;37.50;;;;;16.30;44.50;101119.78;5077320;27;45533;-64
2022/04/26 12:40:08;;;;;;;;;42.00;37.25;;;;;16.33;44.65;101106.38;5077369;27;45533;-65
2022/04/26 12:42:38;;;;;;;;;40.33;35.33;;;;;16.43;44.92;101106.72;5077310;27;45486;-64
2022/04/26 12:45:32;;;;;;;;;41.00;35.75;;;;;16.44;44.67;101108.47;5076952;27;45488;-66
2022/04/26 12:51:20;;;;;;;;;44.67;36.67;;;;;16.61;44.52;101110.25;5077277;28;45477;-65
2022/04/26 12:53:47;;;;;;;;;43.25;37.00;;;;;16.68;44.26;101094.81;5077443;27;45545;-64
2022/04/26 12:56:13;;;;;;;;;45.33;37.67;;;;;16.76;44.11;101109.44;5076951;27;46383;-65
2022/04/26 12:58:41;;;;;;;;;44.67;37.00;;;;;16.76;44.34;101103.25;5076856;27;45494;-63
2022/04/26 13:01:08;;;;;;;;;37.67;34.00;;;;;16.74;44.41;101105.16;5076809;27;45308;-66
2022/04/26 13:03:36;;;;;;;;;41.67;36.33;;;;;16.81;44.25;101101.25;5076695;27;45327;-67
2022/04/26 13:06:15;;;;;;;;;40.33;34.33;;;;;16.94;44.09;101101.44;5076808;28;45462;-64
2022/04/26 13:08:43;;;;;;;;;45.00;37.33;;;;;17.15;43.98;101104.75;5076829;27;45509;-65
2022/04/26 13:11:09;;;;;;;;;40.67;34.67;;;;;17.33;43.20;101097.53;5076783;27;45433;-65
2022/04/26 13:13:36;;;;;;;;;36.33;32.33;;;;;17.44;42.09;101098.66;5076778;27;45450;-65
2022/04/26 13:16:02;;;;;;;;;37.00;32.33;;;;;17.47;42.38;101100.31;5076739;27;45989;-65
2022/04/26 13:18:28;;;;;;;;;30.33;29.33;;;;;17.42;41.55;101102.34;5076698;27;45558;-65
2022/04/26 13:20:55;;;;;;;;;31.33;30.00;;;;;17.50;42.10;101102.78;5077060;28;45446;-64
2022/04/26 13:23:20;;;;;;;;;29.33;29.00;;;;;17.57;41.57;101095.31;5076760;28;45375;-66
2022/04/26 13:25:46;;;;;;;;;39.00;34.00;;;;;17.61;41.51;101083.56;5076568;27;45398;-66
2022/04/26 13:28:12;;;;;;;;;38.33;32.67;;;;;17.82;40.83;101098.31;5076460;27;45568;-63
2022/04/26 13:30:37;;;;;;;;;34.00;33.00;;;;;18.16;40.89;101095.47;5076426;27;45390;-65
2022/04/26 13:33:03;;;;;;;;;35.00;29.67;;;;;18.39;40.01;101089.66;5076354;27;45531;-63
2022/04/26 13:35:29;;;;;;;;;31.00;29.67;;;;;18.68;39.65;101085.22;5076369;27;46120;-66
2022/04/26 13:37:57;;;;;;;;;32.00;29.00;;;;;18.79;39.46;101084.59;5076236;27;45398;-64
2022/04/26 13:40:22;;;;;;;;;32.67;30.67;;;;;18.83;38.41;101091.44;5076262;28;45486;-65
2022/04/26 13:42:48;;;;;;;;;38.67;33.00;;;;;18.95;38.37;101093.34;5076266;28;45529;-64
2022/04/26 13:45:14;;;;;;;;;28.33;27.33;;;;;18.92;38.42;101088.19;5074922;28;45407;-65
2022/04/26 13:47:40;;;;;;;;;37.33;33.00;;;;;18.81;38.74;101085.34;5076289;27;45382;-65
2022/04/26 13:50:07;;;;;;;;;30.67;29.33;;;;;18.69;38.87;101076.25;5076408;28;45408;-63
2022/04/26 13:52:33;;;;;;;;;29.00;29.00;;;;;18.56;39.54;101080.63;5076049;28;45374;-65
2022/04/26 13:54:58;;;;;;;;;38.00;33.33;;;;;18.40;38.87;101071.84;5074570;28;48095;-66
2022/04/26 13:57:24;;;;;;;;;28.33;28.33;;;;;18.25;39.73;101078.97;5076051;27;45304;-64
2022/04/26 13:59:49;;;;;;;;;31.00;29.00;;;;;18.09;39.44;101077.22;5075936;27;45524;-65
2022/04/26 14:02:15;;;;;;;;;29.00;29.00;;;;;18.03;39.65;101072.28;5075785;27;45438;-65
2022/04/26 14:04:42;;;;;;;;;26.33;25.00;;;;;18.02;39.60;101072.34;5075662;28;45492;-63
2022/04/26 14:07:08;;;;;;;;;28.33;26.00;;;;;18.00;39.53;101069.78;5075518;27;45519;-65
2022/04/26 14:09:34;;;;;;;;;30.33;28.00;;;;;17.93;39.16;101071.09;5075883;27;45552;-64
2022/04/26 14:12:00;;;;;;;;;27.33;26.67;;;;;17.88;39.75;101068.69;5075932;28;45381;-65
2022/04/26 14:22:41;;;;;;;;;28.67;26.67;;;;;19.34;39.58;101051.78;5075698;28;45455;-63
2022/04/26 14:25:08;;;;;;;;;27.33;27.33;;;;;20.23;36.88;101053.00;5074905;27;45443;-65
2022/04/26 14:27:35;;;;;;;;;29.00;27.33;;;;;20.31;36.12;101037.31;5075490;27;45386;-64
2022/04/26 14:30:01;;;;;;;;;33.00;30.00;;;;;20.21;36.79;101046.94;5075488;28;45464;-65
2022/04/26 14:32:26;;;;;;;;;29.33;28.33;;;;;19.97;36.30;101062.81;5075472;28;45422;-64
2022/04/26 14:34:51;;;;;;;;;26.33;25.00;;;;;19.71;37.44;101059.19;5075306;27;46051;-65
2022/04/26 14:37:17;;;;;;;;;29.00;29.00;;;;;19.41;37.63;101054.88;5075311;27;45492;-65
2022/04/26 14:39:42;;;;;;;;;26.00;26.00;;;;;19.18;37.82;101054.56;5075553;27;45484;-63
2022/04/26 14:42:08;;;;;;;;;27.33;27.33;;;;;18.93;37.88;101049.94;5075562;27;45600;-66
2022/04/26 14:44:34;;;;;;;;;29.33;27.00;;;;;18.82;38.65;101062.22;5073844;28;47790;-65
2022/04/26 14:47:02;;;;;;;;;33.00;30.67;;;;;18.68;38.61;101061.25;5075496;27;45484;-65
2022/04/26 14:49:28;;;;;;;;;29.00;27.00;;;;;18.58;39.04;101054.75;5075303;27;45443;-65
2022/04/26 14:51:54;;;;;;;;;30.33;28.33;;;;;18.51;38.18;101062.28;5074029;28;45409;-65
2022/04/26 14:54:19;;;;;;;;;26.00;26.00;;;;;18.38;39.20;101052.47;5074911;27;46087;-66
2022/04/26 14:56:45;;;;;;;;;26.33;26.33;;;;;18.36;39.23;101059.69;5075234;27;45556;-64
2022/04/26 14:59:13;;;;;;;;;27.33;25.00;;;;;18.33;39.39;101061.59;5075144;27;45845;-65
2022/04/26 15:01:44;;;;;;;;;28.00;25.33;;;;;18.30;39.40;101064.44;5075005;27;45411;-63
2022/04/26 15:04:10;;;;;;;;;26.67;24.33;;;;;18.24;39.38;101067.47;5074831;27;45549;-65
2022/04/26 15:06:35;;;;;;;;;24.00;24.00;;;;;18.14;39.14;101068.97;5074953;27;45396;-63
2022/04/26 15:11:44;;;;;;;;;24.67;24.00;;;;;17.97;39.36;101061.97;5075111;28;45416;-64
2022/04/26 15:16:54;;;;;;;;;21.00;20.00;;;;;17.75;39.50;101056.16;5075131;28;45459;-65
2022/04/26 15:19:20;;;;;;;;;15.00;15.00;;;;;17.72;39.63;101059.84;5075004;27;45484;-64
2022/04/26 15:21:45;;;;;;;;;23.33;23.33;;;;;17.71;39.24;101057.28;5073775;28;45513;-64
2022/04/26 15:24:12;;;;;;;;;16.67;16.67;;;;;17.72;39.67;101059.84;5074745;27;45425;-63
2022/04/26 15:26:38;;;;;;;;;22.00;22.00;;;;;17.72;38.97;101064.31;5074874;27;45428;-65